createdAt,value
2023-04-16T00:00:57.766Z,8.40
2023-04-16T00:03:25.844Z,8.40
2023-04-16T00:05:55.770Z,8.40
2023-04-16T00:08:25.513Z,8.50
2023-04-16T00:10:55.625Z,8.50
2023-04-16T00:13:23.757Z,8.50
2023-04-16T00:15:51.737Z,8.60
2023-04-16T00:18:21.142Z,8.60
2023-04-16T00:20:49.431Z,8.50
2023-04-16T00:23:17.382Z,8.40
2023-04-16T00:25:45.274Z,8.50
2023-04-16T00:28:14.609Z,8.60
2023-04-16T00:30:42.501Z,8.60
2023-04-16T00:33:10.441Z,8.50
2023-04-16T00:35:38.368Z,8.40
2023-04-16T00:38:06.312Z,8.50
2023-04-16T00:40:34.199Z,8.50
2023-04-16T00:43:02.090Z,8.20
2023-04-16T00:45:31.631Z,8.50
2023-04-16T00:48:00.671Z,8.50
2023-04-16T00:50:29.116Z,8.50
2023-04-16T00:52:58.153Z,8.50
2023-04-16T00:55:26.308Z,8.60
2023-04-16T00:57:54.159Z,8.50
2023-04-16T01:00:22.462Z,8.70
2023-04-16T01:02:51.932Z,8.60
2023-04-16T01:05:20.471Z,8.50
2023-04-16T01:07:48.405Z,8.50
2023-04-16T01:10:16.322Z,8.30
2023-04-16T01:12:44.204Z,8.50
2023-04-16T01:15:12.763Z,8.60
2023-04-16T01:17:40.701Z,8.70
2023-04-16T01:20:10.773Z,8.60
2023-04-16T01:22:40.184Z,8.50
2023-04-16T01:25:08.408Z,8.50
2023-04-16T01:27:37.623Z,8.60
2023-04-16T01:30:07.094Z,8.70
2023-04-16T01:32:35.088Z,8.70
2023-04-16T01:35:03.290Z,8.50
2023-04-16T01:37:32.069Z,8.50
2023-04-16T01:40:01.440Z,8.60
2023-04-16T01:42:29.314Z,8.70
2023-04-16T01:44:57.220Z,8.50
2023-04-16T01:47:25.174Z,8.40
2023-04-16T01:49:53.200Z,8.40
2023-04-16T01:52:21.146Z,8.60
2023-04-16T01:54:49.093Z,8.50
2023-04-16T01:57:18.457Z,8.70
2023-04-16T01:59:46.371Z,8.60
2023-04-16T02:02:16.675Z,8.50
2023-04-16T02:04:46.122Z,8.70
2023-04-16T02:07:14.266Z,8.70
2023-04-16T02:09:42.569Z,8.40
2023-04-16T02:12:11.690Z,8.50
2023-04-16T02:14:41.253Z,8.60
2023-04-16T02:17:09.202Z,8.50
2023-04-16T02:19:37.137Z,8.80
2023-04-16T02:22:05.455Z,8.70
2023-04-16T02:24:33.306Z,8.60
2023-04-16T02:27:01.411Z,8.70
2023-04-16T02:29:29.303Z,8.60
2023-04-16T02:31:59.578Z,8.60
2023-04-16T02:34:27.603Z,8.60
2023-04-16T02:36:55.582Z,8.70
2023-04-16T02:39:23.454Z,8.60
2023-04-16T02:41:51.402Z,8.60
2023-04-16T02:44:19.498Z,8.60
2023-04-16T02:46:47.478Z,8.60
2023-04-16T02:49:16.869Z,8.60
2023-04-16T02:51:44.807Z,8.80
2023-04-16T02:54:12.698Z,8.70
2023-04-16T02:56:40.627Z,8.70
2023-04-16T02:59:08.777Z,8.60
2023-04-16T03:01:36.916Z,8.60
2023-04-16T03:04:04.933Z,8.50
2023-04-16T03:06:34.356Z,8.60
2023-04-16T03:09:02.344Z,8.60
2023-04-16T03:11:30.381Z,8.60
2023-04-16T03:13:58.327Z,8.60
2023-04-16T03:16:26.294Z,8.50
2023-04-16T03:18:54.186Z,8.60
2023-04-16T03:21:22.108Z,8.60
2023-04-16T03:23:53.245Z,8.70
2023-04-16T03:26:21.677Z,8.50
2023-04-16T03:28:49.632Z,8.50
2023-04-16T03:31:17.533Z,8.60
2023-04-16T03:33:45.788Z,8.50
2023-04-16T03:36:13.683Z,8.60
2023-04-16T03:38:41.866Z,8.50
2023-04-16T03:41:11.327Z,8.50
2023-04-16T03:43:39.287Z,8.40
2023-04-16T03:46:07.313Z,8.60
2023-04-16T03:48:35.284Z,8.50
2023-04-16T03:51:03.162Z,8.40
2023-04-16T03:53:31.173Z,8.40
2023-04-16T03:55:59.229Z,8.40
2023-04-16T03:58:28.586Z,8.40
2023-04-16T04:00:56.455Z,8.40
2023-04-16T04:03:26.138Z,8.20
2023-04-16T04:05:54.292Z,8.40
2023-04-16T04:08:22.248Z,8.30
2023-04-16T04:10:51.152Z,8.40
2023-04-16T04:13:19.057Z,8.30
2023-04-16T04:15:48.403Z,8.40
2023-04-16T04:18:16.336Z,8.40
2023-04-16T04:20:45.414Z,8.50
2023-04-16T04:23:13.326Z,8.40
2023-04-16T04:25:41.234Z,8.30
2023-04-16T04:28:09.175Z,8.30
2023-04-16T04:30:37.128Z,8.20
2023-04-16T04:33:06.588Z,8.20
2023-04-16T04:35:34.697Z,8.30
2023-04-16T04:38:02.880Z,8.10
2023-04-16T04:40:30.875Z,8.40
2023-04-16T04:42:58.918Z,8.30
2023-04-16T04:45:27.062Z,8.30
2023-04-16T04:47:55.676Z,8.40
2023-04-16T04:50:25.052Z,8.20
2023-04-16T04:52:52.977Z,8.30
2023-04-16T04:55:20.979Z,8.30
2023-04-16T04:57:50.414Z,8.30
2023-04-16T05:00:18.367Z,8.20
2023-04-16T05:02:47.351Z,8.30
2023-04-16T05:05:15.446Z,8.10
2023-04-16T05:07:45.367Z,8.30
2023-04-16T05:10:13.281Z,8.30
2023-04-16T05:12:41.352Z,8.30
2023-04-16T05:15:10.444Z,8.30
2023-04-16T05:17:38.379Z,8.40
2023-04-16T05:20:07.354Z,8.30
2023-04-16T05:22:35.303Z,8.30
2023-04-16T05:25:04.998Z,8.40
2023-04-16T05:27:32.920Z,8.50
2023-04-16T05:30:00.850Z,8.30
2023-04-16T05:32:28.728Z,8.20
2023-04-16T05:34:56.709Z,8.30
2023-04-16T05:37:24.736Z,8.40
2023-04-16T05:39:52.673Z,8.30
2023-04-16T05:42:21.978Z,8.30
2023-04-16T05:44:49.936Z,8.40
2023-04-16T05:47:17.936Z,8.30
2023-04-16T05:49:45.791Z,8.50
2023-04-16T05:52:13.808Z,8.50
2023-04-16T05:54:41.742Z,8.60
2023-04-16T05:57:09.607Z,8.50
2023-04-16T05:59:38.917Z,8.60
2023-04-16T06:02:07.742Z,8.70
2023-04-16T06:04:37.220Z,8.70
2023-04-16T06:07:05.466Z,8.80
2023-04-16T06:09:33.393Z,8.90
2023-04-16T06:12:01.449Z,8.90
2023-04-16T06:14:29.404Z,9.00
2023-04-16T06:16:58.736Z,8.90
2023-04-16T06:19:26.638Z,8.90
2023-04-16T06:21:55.078Z,8.90
2023-04-16T06:24:23.013Z,8.70
2023-04-16T06:26:50.903Z,8.90
2023-04-16T06:29:19.097Z,8.90
2023-04-16T06:31:47.891Z,9.00
2023-04-16T06:34:17.509Z,9.00
2023-04-16T06:36:45.717Z,9.00
2023-04-16T06:39:13.740Z,8.90
2023-04-16T06:41:41.758Z,8.80
2023-04-16T06:44:09.767Z,8.90
2023-04-16T06:46:37.773Z,9.10
2023-04-16T06:49:05.891Z,8.80
2023-04-16T06:51:35.725Z,9.10
2023-04-16T06:54:03.671Z,9.10
2023-04-16T06:56:32.200Z,9.00
2023-04-16T06:59:00.950Z,9.00
2023-04-16T07:01:31.109Z,9.00
2023-04-16T07:03:59.453Z,9.10
2023-04-16T07:06:28.119Z,9.00
2023-04-16T07:08:57.533Z,9.00
2023-04-16T07:11:27.292Z,9.20
2023-04-16T07:13:55.765Z,9.40
2023-04-16T07:16:24.044Z,9.50
2023-04-16T07:18:52.222Z,9.70
2023-04-16T07:21:20.991Z,9.80
2023-04-16T07:23:48.993Z,10.00
2023-04-16T07:26:18.416Z,10.00
2023-04-16T07:28:46.397Z,10.20
2023-04-16T07:31:14.374Z,10.40
2023-04-16T07:33:42.557Z,10.40
2023-04-16T07:36:10.983Z,10.40
2023-04-16T07:38:39.006Z,10.60
2023-04-16T07:41:07.123Z,10.70
2023-04-16T07:43:36.748Z,10.80
2023-04-16T07:46:04.797Z,10.90
2023-04-16T07:48:32.864Z,10.90
2023-04-16T07:51:01.047Z,11.00
2023-04-16T07:53:29.021Z,10.90
2023-04-16T07:55:57.004Z,11.00
2023-04-16T07:58:24.914Z,10.90
2023-04-16T08:00:54.242Z,11.10
2023-04-16T08:03:22.389Z,11.10
2023-04-16T08:05:50.677Z,11.30
2023-04-16T08:08:18.646Z,11.30
2023-04-16T08:10:46.729Z,11.40
2023-04-16T08:13:14.642Z,11.40
2023-04-16T08:15:42.554Z,11.60
2023-04-16T08:18:15.517Z,11.70
2023-04-16T08:20:43.634Z,11.70
2023-04-16T08:23:11.528Z,11.80
2023-04-16T08:25:39.431Z,11.80
2023-04-16T08:28:07.322Z,11.90
2023-04-16T08:30:35.486Z,11.90
2023-04-16T08:33:03.589Z,12.00
2023-04-16T08:35:32.958Z,11.80
2023-04-16T08:38:02.381Z,11.80
2023-04-16T08:40:31.736Z,11.70
2023-04-16T08:43:01.353Z,11.70
2023-04-16T08:45:29.301Z,11.60
2023-04-16T08:47:57.700Z,11.70
2023-04-16T08:50:28.225Z,12.00
2023-04-16T08:53:01.272Z,12.00
2023-04-16T08:55:37.372Z,12.30
2023-04-16T08:58:09.652Z,12.30
2023-04-16T09:00:40.947Z,12.60
2023-04-16T09:03:10.429Z,13.10
2023-04-16T09:05:39.531Z,13.20
2023-04-16T09:08:09.295Z,13.10
2023-04-16T09:10:37.271Z,13.40
2023-04-16T09:13:05.263Z,13.60
2023-04-16T09:15:35.242Z,13.80
2023-04-16T09:18:03.336Z,14.00
2023-04-16T09:20:31.377Z,14.20
2023-04-16T09:22:59.317Z,14.30
2023-04-16T09:25:29.266Z,14.10
2023-04-16T09:27:57.153Z,14.10
2023-04-16T09:30:27.128Z,14.30
2023-04-16T09:33:15.608Z,14.50
2023-04-16T09:35:47.989Z,14.40
2023-04-16T09:38:16.373Z,14.50
2023-04-16T09:40:47.414Z,14.60
2023-04-16T09:43:17.337Z,14.80
2023-04-16T09:45:52.058Z,15.00
2023-04-16T09:48:30.287Z,14.90
2023-04-16T09:50:58.554Z,15.00
2023-04-16T09:53:27.122Z,14.90
2023-04-16T09:55:57.707Z,15.00
2023-04-16T09:58:25.780Z,14.70
2023-04-16T10:00:58.288Z,14.50
2023-04-16T10:03:32.979Z,14.40
2023-04-16T10:06:02.979Z,14.50
2023-04-16T10:17:00.562Z,15.10
2023-04-16T10:19:28.760Z,15.10
2023-04-16T10:21:56.772Z,15.30
2023-04-16T10:24:25.612Z,15.20
2023-04-16T10:26:54.038Z,15.20
2023-04-16T10:29:22.700Z,15.30
2023-04-16T10:31:52.045Z,15.20
2023-04-16T10:34:21.857Z,15.40
2023-04-16T10:36:51.156Z,15.50
2023-04-16T10:39:21.096Z,15.70
2023-04-16T10:41:49.216Z,15.80
2023-04-16T10:44:19.303Z,15.70
2023-04-16T10:46:49.689Z,15.70
2023-04-16T10:49:19.890Z,15.80
2023-04-16T10:51:56.251Z,15.80
2023-04-16T10:54:28.943Z,15.80
2023-04-16T10:56:58.865Z,15.80
2023-04-16T10:59:31.855Z,15.60
2023-04-16T11:02:01.775Z,15.60
2023-04-16T11:04:39.621Z,15.60
2023-04-16T11:07:16.991Z,15.60
2023-04-16T11:09:56.544Z,15.70
2023-04-16T11:12:27.456Z,15.70
2023-04-16T11:14:59.750Z,15.90
2023-04-16T11:17:30.477Z,16.00
2023-04-16T11:19:58.381Z,15.90
2023-04-16T11:22:28.844Z,15.50
2023-04-16T11:24:57.593Z,15.60
2023-04-16T11:27:26.329Z,15.80
2023-04-16T11:30:04.120Z,15.70
2023-04-16T11:32:33.579Z,15.50
2023-04-16T11:35:04.414Z,15.30
2023-04-16T11:37:37.637Z,15.10
2023-04-16T11:40:08.109Z,15.20
2023-04-16T11:42:37.821Z,15.30
2023-04-16T11:45:06.474Z,15.40
2023-04-16T11:47:43.683Z,15.60
2023-04-16T11:50:22.770Z,15.50
2023-04-16T12:22:27.171Z,15.50
2023-04-16T12:24:57.967Z,15.60
2023-04-16T12:27:28.541Z,15.30
2023-04-16T12:30:07.186Z,15.30
2023-04-16T12:32:35.149Z,15.40
2023-04-16T12:35:02.995Z,15.40
2023-04-16T12:37:32.525Z,15.50
2023-04-16T12:40:00.524Z,15.70
2023-04-16T12:42:33.410Z,15.80
2023-04-16T12:45:01.291Z,15.80
2023-04-16T12:47:29.256Z,15.80
2023-04-16T12:49:57.700Z,15.60
2023-04-16T12:52:25.749Z,15.60
2023-04-16T12:54:55.214Z,15.50
2023-04-16T12:57:28.365Z,15.60
2023-04-16T12:59:57.213Z,15.50
2023-04-16T13:02:26.032Z,15.40
2023-04-16T13:04:54.761Z,15.50
2023-04-16T13:07:24.054Z,15.20
2023-04-16T13:09:51.990Z,15.40
2023-04-16T13:12:21.260Z,15.30
2023-04-16T13:14:49.092Z,15.40
2023-04-16T13:17:16.919Z,15.50
2023-04-16T13:19:45.631Z,15.70
2023-04-16T13:22:14.020Z,15.70
2023-04-16T13:24:41.890Z,15.70
2023-04-16T13:27:11.363Z,15.80
2023-04-16T13:29:40.723Z,15.90
2023-04-16T13:32:08.612Z,15.90
2023-04-16T13:34:36.496Z,15.90
2023-04-16T13:37:04.522Z,15.80
2023-04-16T13:39:32.582Z,15.90
2023-04-16T13:42:00.654Z,15.90
2023-04-16T13:44:28.640Z,15.90
2023-04-16T13:46:58.213Z,16.10
2023-04-16T13:49:26.255Z,16.10
2023-04-16T13:51:54.162Z,16.20
2023-04-16T13:54:21.995Z,16.20
2023-04-16T13:56:51.112Z,16.20
2023-04-16T13:59:20.092Z,16.20
2023-04-16T14:01:48.082Z,16.00
2023-04-16T14:04:17.540Z,15.90
2023-04-16T14:06:45.432Z,15.80
2023-04-16T14:09:13.406Z,15.90
2023-04-16T14:11:41.436Z,15.90
2023-04-16T14:14:09.342Z,15.60
2023-04-16T14:16:37.249Z,15.60
2023-04-16T14:19:05.201Z,15.50
2023-04-16T14:21:34.481Z,15.50
2023-04-16T14:24:02.278Z,15.50
2023-04-16T14:26:33.340Z,15.60
2023-04-16T14:31:29.155Z,15.90
2023-04-16T14:33:57.056Z,16.00
2023-04-16T14:36:24.937Z,16.30
2023-04-16T14:38:54.245Z,16.30
2023-04-16T14:41:22.170Z,16.40
2023-04-16T14:43:50.041Z,16.50
2023-04-16T14:46:18.093Z,16.50
2023-04-16T14:48:46.385Z,16.60
2023-04-16T14:51:14.317Z,16.50
2023-04-16T14:53:42.245Z,16.60
2023-04-16T14:56:12.842Z,16.60
2023-04-16T14:58:42.789Z,16.80
2023-04-16T15:01:10.833Z,16.70
2023-04-16T15:03:38.936Z,16.90
2023-04-16T15:06:07.084Z,16.80
2023-04-16T15:08:35.730Z,16.80
2023-04-16T15:11:03.685Z,16.70
2023-04-16T15:13:34.543Z,16.60
2023-04-16T15:16:02.573Z,16.60
2023-04-16T15:18:31.004Z,16.60
2023-04-16T15:20:58.974Z,16.50
2023-04-16T15:23:26.898Z,16.50
2023-04-16T15:25:57.946Z,16.60
2023-04-16T15:28:25.982Z,16.60
2023-04-16T15:30:55.693Z,16.50
2023-04-16T15:33:26.442Z,16.50
2023-04-16T15:35:54.602Z,16.60
2023-04-16T15:38:22.875Z,16.40
2023-04-16T15:40:53.929Z,16.30
2023-04-16T15:43:22.510Z,16.20
2023-04-16T15:45:51.121Z,16.20
2023-04-16T15:48:21.624Z,16.00
2023-04-16T15:50:49.813Z,15.90
2023-04-16T15:53:18.085Z,15.80
2023-04-16T15:55:46.464Z,15.70
2023-04-16T15:58:14.376Z,15.50
2023-04-16T16:00:43.038Z,15.40
2023-04-16T16:03:11.102Z,15.30
2023-04-16T16:05:41.019Z,15.20
2023-04-16T16:08:09.964Z,15.30
2023-04-16T16:10:37.839Z,15.40
2023-04-16T16:13:07.886Z,15.30
2023-04-16T16:15:35.971Z,15.50
2023-04-16T16:18:03.922Z,15.50
2023-04-16T16:20:31.873Z,15.50
2023-04-16T16:23:01.277Z,15.50
2023-04-16T16:25:30.257Z,15.30
2023-04-16T16:27:58.789Z,15.20
2023-04-16T16:30:27.151Z,15.20
2023-04-16T16:32:55.397Z,15.20
2023-04-16T16:45:59.604Z,14.70
2023-04-16T16:48:27.522Z,14.70
2023-04-16T16:50:55.576Z,14.60
2023-04-16T16:53:23.523Z,14.50
2023-04-16T16:55:51.484Z,14.40
2023-04-16T16:58:19.360Z,14.40
2023-04-16T17:00:47.253Z,14.30
2023-04-16T17:03:17.096Z,14.30
2023-04-16T17:05:45.237Z,14.20
2023-04-16T17:08:13.830Z,14.10
2023-04-16T17:10:43.461Z,14.10
2023-04-16T17:13:11.389Z,14.00
2023-04-16T17:15:39.712Z,14.00
2023-04-16T17:18:07.849Z,13.90
2023-04-16T17:20:37.886Z,13.80
2023-04-16T17:23:06.065Z,13.80
2023-04-16T17:25:34.161Z,13.80
2023-04-16T17:28:02.158Z,13.80
2023-04-16T17:30:31.873Z,13.60
2023-04-16T17:35:35.270Z,13.60
2023-04-16T17:38:04.477Z,13.50
2023-04-16T17:40:32.362Z,13.50
2023-04-16T17:43:00.236Z,13.50
2023-04-16T17:45:28.143Z,13.50
2023-04-16T17:47:56.037Z,13.40
2023-04-16T17:50:24.195Z,13.40
2023-04-16T17:52:52.060Z,13.30
2023-04-16T17:55:21.462Z,13.30
2023-04-16T17:57:49.759Z,13.30
2023-04-16T18:00:18.518Z,13.20
2023-04-16T18:02:46.503Z,13.30
2023-04-16T18:05:14.590Z,13.20
2023-04-16T18:07:43.663Z,13.20
2023-04-16T18:10:11.808Z,13.10
2023-04-16T18:12:41.179Z,13.10
2023-04-16T18:15:10.300Z,13.10
2023-04-16T18:17:38.270Z,13.10
2023-04-16T18:20:08.919Z,12.90
2023-04-16T18:22:36.850Z,12.90
2023-04-16T18:25:05.260Z,12.90
2023-04-16T18:27:33.324Z,12.80
2023-04-16T18:30:04.382Z,12.80
2023-04-16T18:32:33.286Z,12.70
2023-04-16T18:35:01.793Z,12.70
2023-04-16T18:37:29.706Z,12.70
2023-04-16T18:39:58.203Z,12.70
2023-04-16T18:42:27.941Z,12.60
2023-04-16T18:44:56.169Z,12.60
2023-04-16T18:47:25.938Z,12.50
2023-04-16T18:49:53.856Z,12.50
2023-04-16T18:52:21.792Z,12.40
2023-04-16T18:54:49.739Z,12.50
2023-04-16T18:57:17.590Z,12.40
2023-04-16T18:59:45.505Z,12.40
2023-04-16T19:02:13.632Z,12.20
2023-04-16T19:04:43.161Z,12.30
2023-04-16T19:07:11.333Z,12.00
2023-04-16T19:09:39.267Z,12.20
2023-04-16T19:12:07.632Z,12.10
2023-04-16T19:14:35.537Z,12.00
2023-04-16T19:17:03.434Z,12.00
2023-04-16T19:19:31.526Z,11.90
2023-04-16T19:22:00.783Z,11.90
2023-04-16T19:24:28.639Z,12.00
2023-04-16T19:26:57.166Z,12.00
2023-04-16T19:29:25.174Z,11.80
2023-04-16T19:31:53.103Z,11.80
2023-04-16T19:34:20.976Z,11.80
2023-04-16T19:36:48.878Z,11.80
2023-04-16T19:39:18.133Z,11.80
2023-04-16T19:41:45.983Z,11.70
2023-04-16T19:44:13.811Z,11.70
2023-04-16T19:46:41.675Z,11.80
2023-04-16T19:49:09.856Z,11.70
2023-04-16T19:51:38.029Z,11.60
2023-04-16T19:54:06.070Z,11.60
2023-04-16T19:56:35.765Z,11.50
2023-04-16T19:59:03.651Z,11.50
2023-04-16T20:01:31.748Z,11.40
2023-04-16T20:03:59.689Z,11.30
2023-04-16T20:06:27.780Z,11.30
2023-04-16T20:08:56.588Z,11.30
2023-04-16T20:11:24.480Z,11.30
2023-04-16T20:13:54.289Z,11.30
2023-04-16T20:16:23.798Z,11.20
2023-04-16T20:18:54.253Z,11.20
2023-04-16T20:21:22.370Z,11.10
2023-04-16T20:23:50.256Z,11.20
2023-04-16T20:26:18.504Z,11.10
2023-04-16T20:28:46.693Z,11.20
2023-04-16T20:31:16.205Z,11.10
2023-04-16T20:33:44.040Z,11.10
2023-04-16T20:36:11.942Z,11.00
2023-04-16T20:38:42.246Z,11.10
2023-04-16T20:41:12.294Z,11.00
2023-04-16T20:43:42.062Z,11.10
2023-04-16T20:46:10.651Z,11.10
2023-04-16T20:48:40.035Z,11.10
2023-04-16T20:51:09.392Z,11.00
2023-04-16T20:53:38.040Z,11.10
2023-04-16T20:56:06.607Z,11.00
2023-04-16T20:58:34.512Z,10.90
2023-04-16T21:01:02.525Z,11.00
2023-04-16T21:03:30.560Z,11.00
2023-04-16T21:06:01.648Z,10.90
2023-04-16T21:08:29.570Z,10.80
2023-04-16T21:10:57.456Z,10.90
2023-04-16T21:13:25.510Z,10.90
2023-04-16T21:15:53.944Z,10.90
2023-04-16T21:18:21.918Z,10.80
2023-04-16T21:20:49.828Z,10.80
2023-04-16T21:23:19.107Z,10.90
2023-04-16T21:25:46.973Z,10.80
2023-04-16T21:28:14.808Z,10.70
2023-04-16T21:30:43.201Z,10.60
2023-04-16T21:33:12.736Z,10.60
2023-04-16T21:35:40.705Z,10.60
2023-04-16T21:38:08.622Z,10.60
2023-04-16T21:40:37.930Z,10.60
2023-04-16T21:43:06.391Z,10.60
2023-04-16T21:45:34.272Z,10.40
2023-04-16T21:48:02.271Z,10.50
2023-04-16T21:50:30.215Z,10.40
2023-04-16T21:52:58.124Z,10.40
2023-04-16T21:55:26.069Z,10.30
2023-04-16T21:57:55.331Z,10.30
2023-04-16T22:00:23.230Z,10.40
2023-04-16T22:02:51.520Z,10.30
2023-04-16T22:05:19.963Z,10.20
2023-04-16T22:07:47.884Z,10.20
2023-04-16T22:10:16.059Z,10.20
2023-04-16T22:12:44.740Z,10.10
2023-04-16T22:15:15.207Z,10.20
2023-04-16T22:17:43.121Z,10.20
2023-04-16T22:20:12.718Z,10.30
2023-04-16T22:22:40.918Z,10.20
2023-04-16T22:25:09.907Z,10.20
2023-04-16T22:27:38.028Z,10.10
2023-04-16T22:30:07.180Z,10.10
2023-04-16T22:32:36.543Z,10.10
2023-04-16T22:35:04.798Z,10.20
2023-04-16T22:37:33.437Z,10.10
2023-04-16T22:40:01.554Z,10.00
2023-04-16T22:42:29.484Z,10.00
2023-04-16T22:44:57.572Z,10.00
2023-04-16T22:47:25.640Z,10.00
2023-04-16T22:49:55.380Z,10.10
2023-04-16T22:52:23.327Z,9.90
2023-04-16T22:54:51.270Z,10.00
2023-04-16T22:57:21.106Z,10.00
2023-04-16T22:59:49.101Z,9.90
2023-04-16T23:02:17.476Z,10.00
2023-04-16T23:04:45.565Z,10.00
2023-04-16T23:07:15.610Z,9.80
2023-04-16T23:09:43.559Z,9.80
2023-04-16T23:17:28.218Z,9.70
2023-04-16T23:19:56.253Z,9.70
2023-04-16T23:22:25.562Z,9.70
2023-04-16T23:24:53.682Z,9.80
2023-04-16T23:27:21.564Z,9.70
2023-04-16T23:29:49.564Z,9.60
2023-04-16T23:32:17.588Z,9.50
2023-04-16T23:34:45.610Z,9.80
2023-04-16T23:37:13.678Z,9.70
2023-04-16T23:39:43.058Z,9.50
2023-04-16T23:42:11.143Z,9.60
2023-04-16T23:44:39.151Z,9.70
2023-04-16T23:47:07.089Z,9.60
2023-04-16T23:49:34.992Z,9.70
2023-04-16T23:52:02.899Z,9.70
2023-04-16T23:54:30.787Z,9.60
2023-04-16T23:57:00.100Z,9.60
2023-04-16T23:59:28.102Z,9.60
